This is the latest recevied weather packets stored in our database for station/object Huerbel. If no packets are shown the sender has not sent any weather packets the latest 10 day(s).
| Time | Temp. | Humidity | Pressure | Rain* | Wind** | Luminosity | Snow |
|---|---|---|---|---|---|---|---|
| 1777629731 | 16.67° C | 30% | 1028.2 hPa | 0 mm | - | - | - |
| 1777627930 | 15.56° C | 32% | 1028.3 hPa | 0 mm | - | - | - |
| 1777626132 | 13.89° C | 37% | 1028.6 hPa | 0 mm | - | - | - |
| 1777624331 | 12.78° C | 39% | 1028.8 hPa | 0 mm | - | - | - |
| 1777622532 | 11.11° C | 40% | 1028.8 hPa | 0 mm | - | - | - |
| 1777620733 | 10.56° C | 42% | 1028.7 hPa | 0 mm | - | - | - |
| 1777618930 | 9.44° C | 44% | 1028.7 hPa | 0 mm | - | - | - |
| 1777617131 | 6.67° C | 53% | 1028.3 hPa | 0 mm | - | - | - |
| 1777615333 | 2.22° C | 72% | 1028.2 hPa | 0 mm | - | - | - |
| 1777613531 | 0.56° C | 68% | 1028.1 hPa | 0 mm | - | - | - |
| 1777611731 | 0.56° C | 64% | 1027.7 hPa | 0 mm | - | - | - |
| 1777609931 | 1.67° C | 62% | 1027.5 hPa | 0 mm | - | - | - |
| 1777608131 | 2.78° C | 59% | 1027.3 hPa | 0 mm | - | - | - |
| 1777606332 | 3.89° C | 56% | 1027.3 hPa | 0 mm | - | - | - |
| 1777604532 | 4.44° C | 52% | 1027.4 hPa | 0 mm | - | - | - |
| 1777602733 | 5.56° C | 48% | 1027.2 hPa | 0 mm | - | - | - |
| 1777600931 | 5.56° C | 48% | 1027 hPa | 0 mm | - | - | - |
| 1777599131 | 5° C | 49% | 1027.1 hPa | 0 mm | - | - | - |
| 1777597331 | 4.44° C | 50% | 1027.3 hPa | 0 mm | - | - | - |
| 1777595529 | 5° C | 50% | 1027.5 hPa | 0 mm | - | - | - |
| 1777593730 | 5.56° C | 49% | 1027.6 hPa | 0 mm | - | - | - |
| 1777591929 | 5.56° C | 48% | 1027.5 hPa | 0 mm | - | - | - |
| 1777590129 | 5.56° C | 48% | 1027.6 hPa | 0 mm | - | - | - |
| 1777588329 | 7.22° C | 43% | 1027.5 hPa | 0 mm | - | - | - |
| 1777586529 | 7.78° C | 40% | 1027.6 hPa | 0 mm | - | - | - |
* Rain since midnight (hover to see other rain measurements)
** Current wind speed in m/s (hover to see current wind gust speed)